UDYZ/EVN METAR and TAF weather

Enter ICAO airport designator
Station Type Date Time Source
UDYZ METAR 2019/10/23 20:30 UTC NOAA

UDYZ 232030Z 03003KT 350V060 9999 NSC 12/04 Q1021 R09/010070 NOSIG


Station Type Date Time Source
UDYZ Decoded METAR 2019/10/23 20:30 UTC NOAA

Station name not available
Oct 23, 2019 - 04:30 PM EDT / 2019.10.23 2030 UTC
Wind: from the NNE (030 degrees) at 3 MPH (3 KT) (direction variable):0
Visibility: greater than 7 mile(s):0
Temperature: 53 F (12 C)
Dew Point: 39 F (4 C)
Relative Humidity: 57%
Pressure (altimeter): 30.15 in. Hg (1021 hPa)
ob: UDYZ 232030Z 03003KT 350V060 9999 NSC 12/04 Q1021 R09/010070 NOSIG
cycle: 20

Station Type Date Time Source
UDYZ TAF 2019/10/23 18:00 UTC NOAA

TAF UDYZ 231703Z 2318/2418 04006KT CAVOK
TEMPO 2400/2406 2300 BR

Example: see airport list